Terminal Aerodrome Forecast
Issued by NWS Upton, NY

Home | Current Version | Previous Version | Text Only | Print | Product List | Glossary On
Versions: 1 2 3 4 5 6 7 8 9 10 11 12 13 14 15 16 17 18 19 20 21 22 23 24 25 26 27 28 29 30 31 32
816
FTUS41 KOKX 301943 AAA
TAFJFK
TAF AMD
KJFK 301943Z 3020/3124 20013KT P6SM FEW020 BKN050 OVC090
     FM302100 19015KT P6SM BKN050
     FM310100 22009KT P6SM VCSH BKN050
     FM310400 22004KT 4SM BR FEW005 BKN090
      TEMPO 3105/3106 BKN005
     FM310600 VRB04KT 2SM BR BKN005 BKN040
     FM311100 33005KT P6SM SCT090 BKN250
     FM311600 24005KT P6SM FEW050 SCT250
     FM311700 18008KT P6SM FEW050 SCT250=

USA.gov is the U.S. government's official web portal to all federal, state and local government web resources and services.